Main page
METAR-TAF:

METAR-TAF

Airports :

Eleusina, Greece

latitude: 38-04N, longitude: 023-33E, elevation: 44 m

Current weather observation

The report was made 40 minutes ago, at 11:20 UTC
Wind 7 kt from the South
Temperature 18°C
Humidity 52%
Pressure 1019 hPa
Visibility 10 km or more
Few clouds at a height of 2500 ft

METAR: LGEL 251120Z 18007KT 9999 FEW025 18/08 Q1019

Time: 14:00 (12:00 UTC)

Forecast

The report was made 1 hour and 0 minutes ago, at 11:00 UTC
Forecast valid from 25 at 12 UTC to 26 at 12 UTC
Wind 10 kt from the South
Visibility 10 km or more
Few clouds at a height of 2500 ft
Broken clouds at a height of 7000 ft
Probability 30% :
Temporary
from 25 at 18 UTC to 26 at 12 UTC
Visibility: 8000 m
rain
Becoming
from 25 at 18 UTC to 25 at 20 UTC
Wind 5 kt from variable directions

TAF: LGEL 251100Z 2512/2612 17010KT 9999 FEW025 BKN070 PROB30 TEMPO 2518/2612 8000 RA BECMG 2518/2520 VRB05KT

Weather observations and forecasts of more than 4000 airports (METAR and TAF reports).

The available stations are represented by yellow and red dots on the map.

Hover mouse over dot to see the name of the station.

Then click to see weather observations and forecasts.

To change the map : click on the green buttons with a black cross to zoom in, on the green button with a dash to zoom out, or on the green arrows for adjacent maps.


METAR-TAF: